Time;durP1;ratioP1;P1;durP2;ratioP2;P2;SDS_P1;SDS_P2;PMS_P1;PMS_P2;Temp;Humidity;BMP_temperature;BMP_pressure;BME280_temperature;BME280_humidity;BME280_pressure;Samples;Min_cycle;Max_cycle;Signal;HPM_P1;HPM_P2
2024/01/13 00:00:57;;;;;;;;;;;2.20;99.90;;;;;;4969714;28;19925;-77
2024/01/13 00:03:44;;;;;;;;;;;2.20;99.90;;;;;;4949544;28;20327;-77
2024/01/13 00:06:30;;;;;;;;;;;2.20;99.90;;;;;;4977859;28;19914;-77
2024/01/13 00:09:17;;;;;;;;;;;2.20;99.90;;;;;;4938539;28;20364;-76
2024/01/13 00:12:03;;;;;;;;;;;2.20;99.90;;;;;;4937068;28;19918;-77
2024/01/13 00:14:51;;;;;;;;;;;2.20;99.90;;;;;;4959060;28;19977;-77
2024/01/13 00:17:38;;;;;;;;;;;2.20;99.90;;;;;;4966006;28;19914;-77
2024/01/13 00:20:24;;;;;;;;;;;2.20;99.90;;;;;;4941616;29;19981;-76
2024/01/13 00:23:11;;;;;;;;;;;2.10;99.90;;;;;;4950023;28;19988;-77
2024/01/13 00:25:58;;;;;;;;;;;2.10;99.90;;;;;;4963246;28;20119;-76
2024/01/13 00:28:44;;;;;;;;;;;2.20;99.90;;;;;;4946343;28;19928;-77
2024/01/13 00:31:31;;;;;;;;;;;2.10;99.90;;;;;;4964188;28;19977;-76
2024/01/13 00:34:18;;;;;;;;;;;2.10;99.90;;;;;;4950884;28;20640;-77
2024/01/13 00:37:04;;;;;;;;;;;2.10;99.90;;;;;;4930691;29;19919;-77
2024/01/13 00:39:51;;;;;;;;;;;2.20;99.90;;;;;;4957554;28;19930;-77
2024/01/13 00:42:36;;;;;;;;;;;2.10;99.90;;;;;;4930243;29;19953;-77
2024/01/13 00:45:22;;;;;;;;;;;2.20;99.90;;;;;;4959162;28;19926;-77
2024/01/13 00:48:08;;;;;;;;;;;2.20;99.90;;;;;;4959499;28;19915;-76
2024/01/13 00:50:55;;;;;;;;;;;2.20;99.90;;;;;;4957508;29;19914;-77
2024/01/13 00:53:41;;;;;;;;;;;2.20;99.90;;;;;;4958588;28;19994;-77
2024/01/13 00:56:28;;;;;;;;;;;2.20;99.90;;;;;;4958461;28;19923;-77
2024/01/13 00:59:17;;;;;;;;;;;2.20;99.90;;;;;;4945390;28;21670;-77
2024/01/13 01:02:03;;;;;;;;;;;2.20;99.90;;;;;;4944527;29;20049;-77
2024/01/13 01:04:48;;;;;;;;;;;2.20;99.90;;;;;;4929107;29;20335;-77
2024/01/13 01:07:34;;;;;;;;;;;2.20;99.90;;;;;;4956617;28;19915;-77
2024/01/13 01:10:22;;;;;;;;;;;2.20;99.90;;;;;;4956186;29;19929;-77
2024/01/13 01:13:07;;;;;;;;;;;2.20;99.90;;;;;;4957380;28;19919;-77
2024/01/13 01:15:55;;;;;;;;;;;2.20;99.90;;;;;;4956023;28;20443;-77
2024/01/13 01:18:42;;;;;;;;;;;2.20;99.90;;;;;;4958992;28;19973;-76
2024/01/13 01:21:28;;;;;;;;;;;2.20;99.90;;;;;;4956916;29;19927;-77
2024/01/13 01:24:15;;;;;;;;;;;2.20;99.90;;;;;;4927868;29;19969;-76
2024/01/13 01:27:01;;;;;;;;;;;2.20;99.90;;;;;;4916892;29;19919;-77
2024/01/13 01:29:46;;;;;;;;;;;2.20;99.90;;;;;;4941854;29;20319;-77
2024/01/13 01:32:32;;;;;;;;;;;2.20;99.90;;;;;;4925876;29;19915;-77
2024/01/13 01:35:18;;;;;;;;;;;2.20;99.90;;;;;;4932997;29;19953;-77
2024/01/13 01:38:04;;;;;;;;;;;2.20;99.90;;;;;;4929349;29;19954;-77
2024/01/13 01:40:53;;;;;;;;;;;2.20;99.90;;;;;;4940595;29;19918;-76
2024/01/13 01:43:39;;;;;;;;;;;2.20;99.90;;;;;;4935651;29;19929;-76
2024/01/13 01:46:27;;;;;;;;;;;2.20;99.90;;;;;;4956098;28;20307;-77
2024/01/13 01:49:13;;;;;;;;;;;2.20;99.90;;;;;;4950453;28;19958;-77
2024/01/13 01:51:59;;;;;;;;;;;2.10;99.90;;;;;;4917504;29;19919;-77
2024/01/13 01:54:45;;;;;;;;;;;2.20;99.90;;;;;;4926993;28;19922;-77
2024/01/13 01:57:31;;;;;;;;;;;2.20;99.90;;;;;;4946316;29;20335;-77
2024/01/13 02:00:18;;;;;;;;;;;2.20;99.90;;;;;;4935078;29;20251;-77
2024/01/13 02:03:04;;;;;;;;;;;2.20;99.90;;;;;;4938637;29;19973;-77
2024/01/13 02:05:51;;;;;;;;;;;2.20;99.90;;;;;;4931895;29;19915;-77
2024/01/13 02:08:37;;;;;;;;;;;2.20;99.90;;;;;;4951379;29;19969;-76
2024/01/13 02:11:23;;;;;;;;;;;2.20;99.90;;;;;;4946577;29;19930;-77
2024/01/13 02:14:08;;;;;;;;;;;2.20;99.90;;;;;;4951653;29;19915;-76
2024/01/13 02:16:55;;;;;;;;;;;2.30;99.90;;;;;;4926930;29;19962;-76
2024/01/13 02:19:41;;;;;;;;;;;2.20;99.90;;;;;;4944924;29;20001;-76
2024/01/13 02:22:27;;;;;;;;;;;2.20;99.90;;;;;;4940833;29;20370;-77
2024/01/13 02:25:13;;;;;;;;;;;2.20;99.90;;;;;;4955781;29;19918;-78
2024/01/13 02:27:59;;;;;;;;;;;2.20;99.90;;;;;;4943186;28;20258;-77
2024/01/13 02:30:45;;;;;;;;;;;2.20;99.90;;;;;;4938906;29;20000;-76
2024/01/13 02:33:32;;;;;;;;;;;2.20;99.90;;;;;;4919986;29;19945;-77
2024/01/13 02:36:17;;;;;;;;;;;2.20;99.90;;;;;;4956902;28;19919;-77
2024/01/13 02:39:04;;;;;;;;;;;2.20;99.90;;;;;;4954834;29;19985;-77
2024/01/13 02:41:49;;;;;;;;;;;2.20;99.90;;;;;;4943418;28;19961;-77
2024/01/13 02:44:35;;;;;;;;;;;2.20;99.90;;;;;;4956717;28;19918;-77
2024/01/13 02:47:23;;;;;;;;;;;2.20;99.90;;;;;;4943187;29;19914;-77
2024/01/13 02:50:09;;;;;;;;;;;2.20;99.90;;;;;;4944776;28;20025;-77
2024/01/13 02:52:55;;;;;;;;;;;2.20;99.90;;;;;;4937585;28;20540;-77
2024/01/13 02:55:40;;;;;;;;;;;2.10;99.90;;;;;;4963056;28;19925;-77
2024/01/13 02:58:27;;;;;;;;;;;2.20;99.90;;;;;;4940005;29;19929;-77
2024/01/13 03:01:13;;;;;;;;;;;2.10;99.90;;;;;;4942352;29;19918;-77
2024/01/13 03:04:00;;;;;;;;;;;2.20;99.90;;;;;;4949646;28;19926;-77
2024/01/13 03:06:46;;;;;;;;;;;2.20;99.90;;;;;;4951654;28;19926;-76
2024/01/13 03:09:32;;;;;;;;;;;2.20;99.90;;;;;;4957112;28;19919;-77
2024/01/13 03:12:18;;;;;;;;;;;2.20;99.90;;;;;;4947006;29;19990;-76
2024/01/13 03:15:04;;;;;;;;;;;2.20;99.90;;;;;;4946536;29;20336;-77
2024/01/13 03:17:51;;;;;;;;;;;2.20;99.90;;;;;;4948420;28;19965;-77
2024/01/13 03:20:37;;;;;;;;;;;2.10;99.90;;;;;;4960074;29;19918;-77
2024/01/13 03:23:24;;;;;;;;;;;2.10;99.90;;;;;;4946013;29;20324;-76
2024/01/13 03:26:12;;;;;;;;;;;2.10;99.90;;;;;;4963155;28;19914;-76
2024/01/13 03:29:00;;;;;;;;;;;2.10;99.90;;;;;;4931678;29;19915;-77
2024/01/13 03:31:45;;;;;;;;;;;2.10;99.90;;;;;;4946685;29;19919;-77
2024/01/13 03:34:32;;;;;;;;;;;2.10;99.90;;;;;;4960469;28;19918;-76
2024/01/13 03:37:18;;;;;;;;;;;2.10;99.90;;;;;;4960726;28;19973;-76
2024/01/13 03:40:04;;;;;;;;;;;2.10;99.90;;;;;;4946856;28;19927;-76
2024/01/13 03:42:52;;;;;;;;;;;2.10;99.90;;;;;;4964724;28;19933;-76
2024/01/13 03:45:38;;;;;;;;;;;2.20;99.90;;;;;;4944505;28;19981;-77
2024/01/13 03:48:24;;;;;;;;;;;2.20;99.90;;;;;;4953112;29;19915;-76
2024/01/13 03:51:10;;;;;;;;;;;2.20;99.90;;;;;;4954173;28;19969;-76
2024/01/13 03:53:57;;;;;;;;;;;2.20;99.90;;;;;;4947726;28;19915;-77
2024/01/13 03:56:42;;;;;;;;;;;2.20;99.90;;;;;;4946490;29;19915;-77
2024/01/13 03:59:30;;;;;;;;;;;2.30;99.90;;;;;;4967592;28;19922;-77
2024/01/13 04:02:16;;;;;;;;;;;2.20;99.90;;;;;;4971891;28;19921;-77
2024/01/13 04:05:04;;;;;;;;;;;2.20;99.90;;;;;;4958940;29;20000;-77
2024/01/13 04:07:50;;;;;;;;;;;2.20;99.90;;;;;;4958532;29;19958;-77
2024/01/13 04:10:37;;;;;;;;;;;2.20;99.90;;;;;;4945692;28;19918;-76
2024/01/13 04:13:24;;;;;;;;;;;2.30;99.90;;;;;;4931942;29;19950;-76
2024/01/13 04:16:10;;;;;;;;;;;2.30;99.90;;;;;;4933427;29;20239;-77
2024/01/13 04:18:58;;;;;;;;;;;2.20;99.90;;;;;;4945929;29;19918;-77
2024/01/13 04:21:44;;;;;;;;;;;2.20;99.90;;;;;;4956449;28;19997;-78
2024/01/13 04:24:30;;;;;;;;;;;2.30;99.90;;;;;;4957686;28;19918;-77
2024/01/13 04:27:15;;;;;;;;;;;2.20;99.90;;;;;;4944289;29;20013;-77
2024/01/13 04:30:03;;;;;;;;;;;2.30;99.90;;;;;;4958517;29;19915;-76
2024/01/13 04:32:49;;;;;;;;;;;2.30;99.90;;;;;;4947732;29;20342;-76
2024/01/13 04:35:36;;;;;;;;;;;2.20;99.90;;;;;;4971298;28;20366;-77
2024/01/13 04:38:23;;;;;;;;;;;2.30;99.90;;;;;;4934978;29;20248;-77
2024/01/13 04:41:10;;;;;;;;;;;2.20;99.90;;;;;;4946396;28;19922;-78
2024/01/13 04:43:59;;;;;;;;;;;2.20;99.90;;;;;;4945278;29;19965;-77
2024/01/13 04:46:45;;;;;;;;;;;;;;;;;;4932585;29;19915;-77
2024/01/13 04:49:31;;;;;;;;;;;;;;;;;;4959843;28;20651;-77
2024/01/13 04:52:19;;;;;;;;;;;;;;;;;;4925298;29;19919;-77
2024/01/13 04:55:05;;;;;;;;;;;;;;;;;;4926555;29;20009;-77
2024/01/13 04:57:51;;;;;;;;;;;;;;;;;;4941516;28;19926;-77
2024/01/13 05:00:37;;;;;;;;;;;;;;;;;;4963096;28;19929;-77
2024/01/13 05:03:26;;;;;;;;;;;;;;;;;;4958267;29;19993;-77
2024/01/13 05:06:15;;;;;;;;;;;;;;;;;;4958621;28;19918;-77
2024/01/13 05:09:02;;;;;;;;;;;;;;;;;;4937186;29;19915;-78
2024/01/13 05:11:49;;;;;;;;;;;;;;;;;;4937297;29;20685;-77
2024/01/13 05:14:35;;;;;;;;;;;;;;;;;;4954372;29;20303;-77
2024/01/13 05:17:22;;;;;;;;;;;2.10;99.90;;;;;;4957849;29;20017;-76
2024/01/13 05:20:09;;;;;;;;;;;2.10;99.90;;;;;;4958670;29;19922;-76
2024/01/13 05:22:56;;;;;;;;;;;2.10;99.90;;;;;;4954285;28;19973;-76
2024/01/13 05:25:43;;;;;;;;;;;2.10;99.90;;;;;;4963044;28;19918;-77
2024/01/13 05:28:29;;;;;;;;;;;2.10;99.90;;;;;;4951403;29;19946;-76
2024/01/13 05:31:16;;;;;;;;;;;2.10;99.90;;;;;;4956279;28;19926;-76
2024/01/13 05:34:01;;;;;;;;;;;2.10;99.90;;;;;;4945531;28;20005;-78
2024/01/13 05:36:47;;;;;;;;;;;2.10;99.90;;;;;;4946012;28;19918;-77
2024/01/13 05:39:33;;;;;;;;;;;2.10;99.90;;;;;;4945917;28;19930;-78
2024/01/13 05:42:21;;;;;;;;;;;2.10;99.90;;;;;;4943050;29;19957;-76
2024/01/13 05:45:07;;;;;;;;;;;2.10;99.90;;;;;;4942115;29;20012;-76
2024/01/13 05:47:54;;;;;;;;;;;2.00;99.90;;;;;;4957107;28;20415;-76
2024/01/13 05:50:40;;;;;;;;;;;2.00;99.90;;;;;;4943561;29;19915;-76
2024/01/13 05:53:25;;;;;;;;;;;2.00;99.90;;;;;;4951841;28;19915;-77
2024/01/13 05:56:11;;;;;;;;;;;2.00;99.90;;;;;;4975509;28;19929;-77
2024/01/13 05:58:58;;;;;;;;;;;2.00;99.90;;;;;;4945913;29;19930;-77
2024/01/13 06:01:44;;;;;;;;;;;2.00;99.90;;;;;;4956896;29;19914;-78
2024/01/13 06:04:30;;;;;;;;;;;2.00;99.90;;;;;;4944792;28;19918;-76
2024/01/13 06:07:16;;;;;;;;;;;2.00;99.90;;;;;;4944382;29;20275;-77
2024/01/13 06:10:04;;;;;;;;;;;2.00;99.90;;;;;;4947114;29;19914;-77
2024/01/13 06:12:50;;;;;;;;;;;2.00;99.90;;;;;;4933192;28;20283;-76
2024/01/13 06:15:36;;;;;;;;;;;2.00;99.90;;;;;;4962173;28;19922;-78
2024/01/13 06:18:23;;;;;;;;;;;2.00;99.90;;;;;;4962625;28;20759;-77
2024/01/13 06:21:09;;;;;;;;;;;2.00;99.90;;;;;;4925241;28;19914;-77
2024/01/13 06:23:58;;;;;;;;;;;2.00;99.90;;;;;;4937931;29;19958;-77
2024/01/13 06:26:44;;;;;;;;;;;2.00;99.90;;;;;;4937060;29;20331;-76
2024/01/13 06:29:30;;;;;;;;;;;2.00;99.90;;;;;;4952422;28;19914;-77
2024/01/13 06:32:16;;;;;;;;;;;2.00;99.90;;;;;;4961422;28;19914;-77
2024/01/13 06:35:04;;;;;;;;;;;2.10;99.90;;;;;;4975278;28;19980;-76
2024/01/13 06:37:51;;;;;;;;;;;2.00;99.90;;;;;;4945142;29;19918;-77
2024/01/13 06:40:37;;;;;;;;;;;2.00;99.90;;;;;;4941523;29;19926;-77
2024/01/13 06:43:24;;;;;;;;;;;1.90;99.90;;;;;;4955078;28;19918;-76
2024/01/13 06:46:10;;;;;;;;;;;1.90;99.90;;;;;;4966350;28;20029;-77
2024/01/13 06:48:57;;;;;;;;;;;1.90;99.90;;;;;;4924077;29;19915;-77
2024/01/13 06:51:43;;;;;;;;;;;1.90;99.90;;;;;;4947660;28;19914;-77
2024/01/13 06:54:29;;;;;;;;;;;1.90;99.90;;;;;;4976113;28;20338;-76
2024/01/13 06:57:16;;;;;;;;;;;2.00;99.90;;;;;;4975651;28;19914;-76
2024/01/13 07:00:07;;;;;;;;;;;1.90;99.90;;;;;;4967500;28;19922;-77
2024/01/13 07:02:53;;;;;;;;;;;1.90;99.90;;;;;;4936831;29;19918;-77
2024/01/13 07:05:40;;;;;;;;;;;1.90;99.90;;;;;;4910337;29;19918;-77
2024/01/13 07:08:26;;;;;;;;;;;1.90;99.90;;;;;;4953684;28;19973;-76
2024/01/13 07:11:15;;;;;;;;;;;1.90;99.90;;;;;;4935133;29;20305;-76
2024/01/13 07:14:00;;;;;;;;;;;1.90;99.90;;;;;;4937442;29;20403;-77
2024/01/13 07:16:48;;;;;;;;;;;1.90;99.90;;;;;;4966722;28;19918;-77
2024/01/13 07:19:35;;;;;;;;;;;1.90;99.90;;;;;;4975656;28;20362;-76
2024/01/13 07:22:21;;;;;;;;;;;1.90;99.90;;;;;;4958987;28;19922;-76
2024/01/13 07:25:07;;;;;;;;;;;1.90;99.90;;;;;;4957923;28;19918;-76
2024/01/13 07:27:52;;;;;;;;;;;1.90;99.90;;;;;;4954469;29;19918;-77
2024/01/13 07:30:38;;;;;;;;;;;1.90;99.90;;;;;;4942743;29;20013;-77
2024/01/13 07:33:24;;;;;;;;;;;1.90;99.90;;;;;;4955503;28;19985;-77
2024/01/13 07:36:10;;;;;;;;;;;1.90;99.90;;;;;;4955087;29;20813;-77
2024/01/13 07:38:57;;;;;;;;;;;1.90;99.90;;;;;;4943576;28;19977;-76
2024/01/13 07:41:44;;;;;;;;;;;1.90;99.90;;;;;;4973306;28;19965;-77
2024/01/13 07:44:30;;;;;;;;;;;1.90;99.90;;;;;;4975442;28;19929;-76
2024/01/13 07:47:17;;;;;;;;;;;1.90;99.90;;;;;;4961413;28;19960;-75
2024/01/13 07:50:03;;;;;;;;;;;1.90;99.90;;;;;;4975403;28;19918;-76
2024/01/13 07:52:50;;;;;;;;;;;1.90;99.90;;;;;;4941382;28;19925;-75
2024/01/13 07:55:35;;;;;;;;;;;1.90;99.90;;;;;;4944569;29;20021;-76
2024/01/13 07:58:23;;;;;;;;;;;1.90;99.90;;;;;;4946304;29;20001;-76
2024/01/13 08:01:08;;;;;;;;;;;1.90;99.90;;;;;;4959251;28;19914;-76
2024/01/13 08:03:54;;;;;;;;;;;1.90;99.90;;;;;;4958996;29;19919;-75
2024/01/13 08:06:40;;;;;;;;;;;1.90;99.90;;;;;;4959612;28;19915;-77
2024/01/13 08:09:27;;;;;;;;;;;2.00;99.90;;;;;;4960685;28;20362;-76
2024/01/13 08:12:13;;;;;;;;;;;2.00;99.90;;;;;;4950875;29;19914;-76
2024/01/13 08:15:00;;;;;;;;;;;2.00;99.90;;;;;;4959413;28;19922;-76
2024/01/13 08:17:48;;;;;;;;;;;2.00;99.90;;;;;;4955965;28;19993;-75
2024/01/13 08:20:33;;;;;;;;;;;2.00;99.90;;;;;;4961179;28;19918;-75
2024/01/13 08:23:21;;;;;;;;;;;2.10;99.90;;;;;;4927460;28;19981;-76
2024/01/13 08:26:08;;;;;;;;;;;2.00;99.90;;;;;;4961290;28;19929;-76
2024/01/13 08:28:54;;;;;;;;;;;2.00;99.90;;;;;;4959003;28;20383;-75
2024/01/13 08:31:40;;;;;;;;;;;2.00;99.90;;;;;;4955511;29;20324;-76
2024/01/13 08:34:26;;;;;;;;;;;2.00;99.90;;;;;;4935876;29;19981;-75
2024/01/13 08:37:13;;;;;;;;;;;2.10;99.90;;;;;;4951025;29;20010;-77
2024/01/13 08:40:00;;;;;;;;;;;2.10;99.90;;;;;;4940263;28;19926;-74
2024/01/13 08:42:48;;;;;;;;;;;2.10;99.90;;;;;;4967873;28;19915;-77
2024/01/13 08:45:35;;;;;;;;;;;2.10;99.90;;;;;;4935805;29;19925;-77
2024/01/13 08:48:21;;;;;;;;;;;2.20;99.90;;;;;;4965743;28;20260;-77
2024/01/13 08:51:09;;;;;;;;;;;2.20;99.90;;;;;;4957771;29;20315;-78
2024/01/13 08:53:54;;;;;;;;;;;2.20;99.90;;;;;;4951781;29;19922;-76
2024/01/13 08:56:41;;;;;;;;;;;2.10;99.90;;;;;;4952461;28;19966;-78
2024/01/13 08:59:29;;;;;;;;;;;2.20;99.90;;;;;;4959970;28;19929;-77
2024/01/13 09:02:16;;;;;;;;;;;2.10;99.90;;;;;;4905796;29;19919;-76
2024/01/13 09:05:03;;;;;;;;;;;2.20;99.90;;;;;;4925575;29;19950;-76
2024/01/13 09:07:50;;;;;;;;;;;2.20;99.90;;;;;;4943055;29;19997;-75
2024/01/13 09:10:36;;;;;;;;;;;2.20;99.90;;;;;;4944536;29;19919;-73
2024/01/13 09:13:24;;;;;;;;;;;2.20;99.90;;;;;;4937511;29;19929;-76
2024/01/13 09:16:11;;;;;;;;;;;2.20;99.90;;;;;;4950915;28;19958;-75
2024/01/13 09:18:58;;;;;;;;;;;2.20;99.90;;;;;;4959786;28;19930;-75
2024/01/13 09:21:44;;;;;;;;;;;2.30;99.90;;;;;;4939322;29;20006;-75
2024/01/13 09:24:31;;;;;;;;;;;2.20;99.90;;;;;;4966645;28;19926;-75
2024/01/13 09:27:17;;;;;;;;;;;2.30;99.90;;;;;;4948386;28;19996;-75
2024/01/13 09:30:03;;;;;;;;;;;;;;;;;;4956004;28;19915;-75
2024/01/13 09:32:49;;;;;;;;;;;;;;;;;;4956522;29;19992;-75
2024/01/13 09:35:37;;;;;;;;;;;;;;;;;;4963071;28;20620;-75
2024/01/13 09:38:23;;;;;;;;;;;2.40;99.90;;;;;;4976658;28;19977;-75
2024/01/13 09:41:09;;;;;;;;;;;2.40;99.90;;;;;;4972763;28;19917;-75
2024/01/13 09:44:04;;;;;;;;;;;2.40;99.90;;;;;;4945496;28;19929;-73
2024/01/13 09:46:51;;;;;;;;;;;2.50;99.90;;;;;;4968766;28;19925;-75
2024/01/13 09:49:38;;;;;;;;;;;2.50;99.90;;;;;;4955325;29;20275;-75
2024/01/13 09:52:24;;;;;;;;;;;2.50;99.90;;;;;;4929906;29;19929;-75
2024/01/13 09:55:10;;;;;;;;;;;2.50;99.90;;;;;;4939228;28;20208;-75
2024/01/13 09:57:58;;;;;;;;;;;2.50;99.90;;;;;;4955944;29;19915;-76
2024/01/13 10:00:44;;;;;;;;;;;2.50;99.90;;;;;;4958779;28;20250;-74
2024/01/13 10:03:29;;;;;;;;;;;2.60;99.90;;;;;;4923735;29;20001;-76
2024/01/13 10:06:15;;;;;;;;;;;2.50;99.90;;;;;;4932301;29;19947;-76
2024/01/13 10:09:01;;;;;;;;;;;2.50;99.90;;;;;;4932412;29;19981;-77
2024/01/13 10:11:47;;;;;;;;;;;2.60;99.90;;;;;;4924922;28;19922;-76
2024/01/13 10:14:36;;;;;;;;;;;2.50;99.90;;;;;;4940309;28;19985;-76
2024/01/13 10:17:21;;;;;;;;;;;2.50;99.90;;;;;;4950706;29;19918;-76
2024/01/13 10:20:09;;;;;;;;;;;2.50;99.90;;;;;;4937986;28;19930;-76
2024/01/13 10:22:55;;;;;;;;;;;2.50;99.90;;;;;;4951790;28;20010;-76
2024/01/13 10:25:41;;;;;;;;;;;2.60;99.90;;;;;;4951771;28;19915;-74
2024/01/13 10:28:27;;;;;;;;;;;2.50;99.90;;;;;;4932281;29;19923;-73
2024/01/13 10:31:13;;;;;;;;;;;2.50;99.90;;;;;;4931133;29;20009;-74
2024/01/13 10:33:58;;;;;;;;;;;2.60;99.90;;;;;;4933411;28;20411;-74
2024/01/13 10:36:44;;;;;;;;;;;2.60;99.90;;;;;;4938964;28;19919;-74
2024/01/13 10:39:30;;;;;;;;;;;2.60;99.90;;;;;;4935327;28;20358;-74
2024/01/13 10:42:19;;;;;;;;;;;2.70;99.90;;;;;;4951259;28;19918;-74
2024/01/13 10:45:06;;;;;;;;;;;2.70;99.90;;;;;;4939845;28;20326;-74
2024/01/13 10:47:53;;;;;;;;;;;2.80;99.90;;;;;;4951639;28;19919;-74
2024/01/13 10:50:39;;;;;;;;;;;2.80;99.90;;;;;;4933754;28;19997;-74
2024/01/13 10:53:26;;;;;;;;;;;2.80;99.90;;;;;;4931202;29;19929;-74
2024/01/13 10:56:12;;;;;;;;;;;2.80;99.90;;;;;;4932174;29;19918;-74
2024/01/13 10:58:58;;;;;;;;;;;2.90;99.90;;;;;;4942632;28;19947;-74
2024/01/13 11:01:44;;;;;;;;;;;2.80;99.90;;;;;;4950225;28;20387;-74
2024/01/13 11:04:30;;;;;;;;;;;2.90;99.90;;;;;;4940059;28;20308;-75
2024/01/13 11:07:16;;;;;;;;;;;2.90;99.90;;;;;;4940137;28;20009;-74
2024/01/13 11:10:02;;;;;;;;;;;2.80;99.90;;;;;;4939637;28;19919;-74
2024/01/13 11:12:49;;;;;;;;;;;2.90;99.90;;;;;;4936162;29;20291;-74
2024/01/13 11:15:38;;;;;;;;;;;2.90;99.90;;;;;;4951176;28;19948;-74
2024/01/13 11:18:25;;;;;;;;;;;2.90;99.90;;;;;;4933317;28;19919;-74
2024/01/13 11:21:12;;;;;;;;;;;2.80;99.90;;;;;;4934102;29;19954;-74
2024/01/13 11:23:58;;;;;;;;;;;2.80;99.90;;;;;;4939426;28;19930;-74
2024/01/13 11:26:46;;;;;;;;;;;2.90;99.90;;;;;;4950323;29;19918;-75
2024/01/13 11:29:32;;;;;;;;;;;2.90;99.90;;;;;;4951385;28;19922;-74
2024/01/13 11:32:18;;;;;;;;;;;2.90;99.90;;;;;;4953736;28;19954;-74
2024/01/13 11:35:05;;;;;;;;;;;2.80;99.90;;;;;;4955574;28;20001;-74
2024/01/13 11:37:54;;;;;;;;;;;2.90;99.90;;;;;;4953646;28;19930;-74
2024/01/13 11:40:44;;;;;;;;;;;2.90;99.90;;;;;;4954008;29;20384;-75
2024/01/13 11:43:33;;;;;;;;;;;2.90;99.90;;;;;;4940884;29;20250;-74
2024/01/13 11:46:19;;;;;;;;;;;2.90;99.90;;;;;;4954498;29;19914;-75
2024/01/13 11:49:05;;;;;;;;;;;2.90;99.90;;;;;;4954785;29;19919;-75
2024/01/13 11:51:54;;;;;;;;;;;3.00;99.90;;;;;;4953606;29;19992;-75
2024/01/13 11:54:40;;;;;;;;;;;3.00;99.90;;;;;;4954743;28;20254;-74
2024/01/13 11:57:26;;;;;;;;;;;3.00;99.90;;;;;;4955340;28;19929;-75
2024/01/13 12:00:13;;;;;;;;;;;2.90;99.90;;;;;;4955747;28;19922;-74
2024/01/13 12:02:59;;;;;;;;;;;3.00;99.90;;;;;;4935012;29;19933;-75
2024/01/13 12:05:45;;;;;;;;;;;2.90;99.90;;;;;;4935326;29;19918;-75
2024/01/13 12:08:31;;;;;;;;;;;2.90;99.90;;;;;;4922741;29;20259;-74
2024/01/13 12:11:17;;;;;;;;;;;2.90;99.90;;;;;;4920616;29;20316;-74
2024/01/13 12:14:09;;;;;;;;;;;2.90;99.90;;;;;;4937308;29;19918;-74
2024/01/13 12:16:55;;;;;;;;;;;2.90;99.90;;;;;;4954781;28;19942;-74
2024/01/13 12:19:41;;;;;;;;;;;3.00;99.90;;;;;;4953198;29;20220;-75
2024/01/13 12:22:28;;;;;;;;;;;3.00;99.90;;;;;;4939927;28;19919;-74
2024/01/13 12:25:13;;;;;;;;;;;2.90;99.90;;;;;;4921157;29;19990;-74
2024/01/13 12:27:59;;;;;;;;;;;2.90;99.90;;;;;;4934789;28;20005;-74
2024/01/13 12:30:45;;;;;;;;;;;2.90;99.90;;;;;;4921075;29;19918;-74
2024/01/13 12:33:31;;;;;;;;;;;2.90;99.90;;;;;;4935148;28;19934;-74
2024/01/13 12:36:18;;;;;;;;;;;2.80;99.90;;;;;;4921081;29;19919;-74
2024/01/13 12:39:05;;;;;;;;;;;2.80;99.90;;;;;;4931462;29;20017;-74
2024/01/13 12:41:54;;;;;;;;;;;2.80;99.90;;;;;;4952690;28;19919;-74
2024/01/13 12:44:41;;;;;;;;;;;2.80;99.90;;;;;;4954431;28;19929;-74
2024/01/13 12:47:27;;;;;;;;;;;2.80;99.90;;;;;;4951690;29;19964;-74
2024/01/13 12:50:13;;;;;;;;;;;2.80;99.90;;;;;;4942059;28;20350;-75
2024/01/13 12:52:59;;;;;;;;;;;2.80;99.90;;;;;;4952203;29;19914;-74
2024/01/13 12:55:45;;;;;;;;;;;2.80;99.90;;;;;;4953827;28;19948;-74
2024/01/13 12:58:31;;;;;;;;;;;2.80;99.90;;;;;;4941339;28;19918;-74
2024/01/13 13:01:16;;;;;;;;;;;2.90;99.90;;;;;;4952987;29;19929;-74
2024/01/13 13:04:03;;;;;;;;;;;2.80;99.90;;;;;;4921474;29;20013;-74
2024/01/13 13:06:49;;;;;;;;;;;2.90;99.90;;;;;;4921701;29;19919;-74
2024/01/13 13:09:35;;;;;;;;;;;2.80;99.90;;;;;;4932726;29;19919;-74
2024/01/13 13:12:22;;;;;;;;;;;2.80;99.90;;;;;;4933060;29;19919;-74
2024/01/13 13:15:08;;;;;;;;;;;2.80;99.90;;;;;;4934875;28;20002;-74
2024/01/13 13:17:54;;;;;;;;;;;2.90;99.90;;;;;;4933658;29;20130;-74
2024/01/13 13:20:40;;;;;;;;;;;2.80;99.90;;;;;;4933809;29;20044;-74
2024/01/13 13:23:26;;;;;;;;;;;2.80;99.90;;;;;;4933361;28;19919;-74
2024/01/13 13:26:12;;;;;;;;;;;2.80;99.90;;;;;;4920909;29;19915;-74
2024/01/13 13:29:00;;;;;;;;;;;2.80;99.90;;;;;;4922279;28;19922;-74
2024/01/13 13:31:46;;;;;;;;;;;2.80;99.90;;;;;;4920385;29;20251;-74
2024/01/13 13:34:33;;;;;;;;;;;2.80;99.90;;;;;;4921149;29;19919;-74
2024/01/13 13:37:19;;;;;;;;;;;2.80;99.90;;;;;;4932898;28;19926;-75
2024/01/13 13:40:06;;;;;;;;;;;2.80;99.90;;;;;;4947075;28;20358;-75
2024/01/13 13:42:52;;;;;;;;;;;2.70;99.90;;;;;;4929355;29;19918;-76
2024/01/13 13:45:38;;;;;;;;;;;2.90;99.90;;;;;;4957390;28;19914;-77
2024/01/13 13:48:26;;;;;;;;;;;3.30;99.90;;;;;;4974572;28;19945;-80
2024/01/13 13:51:12;;;;;;;;;;;3.60;99.90;;;;;;4955270;28;19929;-74
2024/01/13 13:53:58;;;;;;;;;;;3.30;99.90;;;;;;4974850;28;19922;-75
2024/01/13 13:56:45;;;;;;;;;;;3.10;99.90;;;;;;4954400;29;19915;-74
2024/01/13 13:59:31;;;;;;;;;;;2.90;99.90;;;;;;4960504;28;19969;-74
2024/01/13 14:02:17;;;;;;;;;;;2.90;99.90;;;;;;4948702;28;19918;-75
2024/01/13 14:05:05;;;;;;;;;;;2.80;99.90;;;;;;4971155;28;19954;-74
2024/01/13 14:07:51;;;;;;;;;;;2.90;99.90;;;;;;4970126;28;19921;-75
2024/01/13 14:10:36;;;;;;;;;;;2.90;99.90;;;;;;4974076;28;20481;-74
2024/01/13 14:13:25;;;;;;;;;;;2.80;99.90;;;;;;4971238;28;19914;-74
2024/01/13 14:16:12;;;;;;;;;;;2.80;99.90;;;;;;4971064;28;19914;-74
2024/01/13 14:18:59;;;;;;;;;;;2.70;99.90;;;;;;4956177;28;20351;-74
2024/01/13 14:21:45;;;;;;;;;;;2.70;99.90;;;;;;4958474;28;19926;-74
2024/01/13 14:24:32;;;;;;;;;;;2.70;99.90;;;;;;4973904;28;20354;-74
2024/01/13 14:27:18;;;;;;;;;;;2.70;99.90;;;;;;4961590;28;19929;-74
2024/01/13 14:30:04;;;;;;;;;;;2.70;99.90;;;;;;4961092;28;19918;-73
2024/01/13 14:32:50;;;;;;;;;;;2.70;99.90;;;;;;4957506;28;19925;-74
2024/01/13 14:35:36;;;;;;;;;;;2.70;99.90;;;;;;4970329;28;19914;-74
2024/01/13 14:38:21;;;;;;;;;;;2.60;99.90;;;;;;4974564;28;19925;-74
2024/01/13 14:41:07;;;;;;;;;;;2.60;99.90;;;;;;4964072;28;19926;-75
2024/01/13 14:43:54;;;;;;;;;;;2.60;99.90;;;;;;4967662;28;20347;-75
2024/01/13 14:46:42;;;;;;;;;;;2.60;99.90;;;;;;4959375;28;19979;-75
2024/01/13 14:49:28;;;;;;;;;;;2.60;99.90;;;;;;4969266;28;19927;-75
2024/01/13 14:52:14;;;;;;;;;;;2.60;99.90;;;;;;4945287;29;19929;-74
2024/01/13 14:55:02;;;;;;;;;;;2.60;99.90;;;;;;4940059;29;20332;-75
2024/01/13 14:57:49;;;;;;;;;;;2.60;99.90;;;;;;4959754;28;20366;-75
2024/01/13 15:00:36;;;;;;;;;;;2.60;99.90;;;;;;4942538;29;19922;-74
2024/01/13 15:03:22;;;;;;;;;;;2.60;99.90;;;;;;4939050;29;19914;-74
2024/01/13 15:06:08;;;;;;;;;;;2.60;99.90;;;;;;4954518;28;19918;-74
2024/01/13 15:08:55;;;;;;;;;;;2.60;99.90;;;;;;4941836;29;19989;-74
2024/01/13 15:11:45;;;;;;;;;;;2.60;99.90;;;;;;4962343;28;20028;-74
2024/01/13 15:14:31;;;;;;;;;;;2.60;99.90;;;;;;4958456;28;20014;-74
2024/01/13 15:17:18;;;;;;;;;;;2.60;99.90;;;;;;4967493;28;20240;-75
2024/01/13 15:20:06;;;;;;;;;;;2.60;99.90;;;;;;4964639;28;19918;-75
2024/01/13 15:22:52;;;;;;;;;;;2.60;99.90;;;;;;4961545;28;19922;-76
2024/01/13 15:25:39;;;;;;;;;;;2.70;99.90;;;;;;4963409;28;19919;-80
2024/01/13 15:28:25;;;;;;;;;;;3.00;99.90;;;;;;4949316;29;19993;-76
2024/01/13 15:31:11;;;;;;;;;;;3.10;99.90;;;;;;4948911;29;20361;-75
2024/01/13 15:33:58;;;;;;;;;;;2.90;99.90;;;;;;4962905;28;19989;-75
2024/01/13 15:36:44;;;;;;;;;;;2.80;99.90;;;;;;4949395;29;19914;-75
2024/01/13 15:39:31;;;;;;;;;;;2.80;99.90;;;;;;4961843;28;19938;-75
2024/01/13 15:42:18;;;;;;;;;;;2.80;99.90;;;;;;4949814;28;20001;-75
2024/01/13 15:45:04;;;;;;;;;;;2.70;99.90;;;;;;4948903;28;20047;-75
2024/01/13 15:47:51;;;;;;;;;;;2.80;99.90;;;;;;4961389;29;20545;-74
2024/01/13 15:50:37;;;;;;;;;;;2.70;99.90;;;;;;4962090;29;19925;-76
2024/01/13 15:53:23;;;;;;;;;;;2.70;99.90;;;;;;4961304;29;19914;-74
2024/01/13 15:56:09;;;;;;;;;;;2.70;99.90;;;;;;4943315;29;19958;-75
2024/01/13 15:58:56;;;;;;;;;;;2.70;99.90;;;;;;4961239;28;20005;-75
2024/01/13 16:01:42;;;;;;;;;;;2.70;99.90;;;;;;4960937;29;19914;-75
2024/01/13 16:04:28;;;;;;;;;;;2.70;99.90;;;;;;4962431;28;19929;-75
2024/01/13 16:07:14;;;;;;;;;;;2.70;99.90;;;;;;4960662;28;20383;-74
2024/01/13 16:10:00;;;;;;;;;;;2.70;99.90;;;;;;4960064;29;19918;-75
2024/01/13 16:12:46;;;;;;;;;;;2.70;99.90;;;;;;4963617;28;19918;-75
2024/01/13 16:15:32;;;;;;;;;;;2.70;99.90;;;;;;4947970;28;19918;-75
2024/01/13 16:18:19;;;;;;;;;;;2.70;99.90;;;;;;4945149;29;20387;-74
2024/01/13 16:21:04;;;;;;;;;;;2.70;99.90;;;;;;4945765;29;19978;-75
2024/01/13 16:23:50;;;;;;;;;;;2.80;99.90;;;;;;4959561;28;19918;-74
2024/01/13 16:26:37;;;;;;;;;;;2.70;99.90;;;;;;4958722;28;19942;-74